Time;durP1;ratioP1;P1;durP2;ratioP2;P2;SDS_P1;SDS_P2;PMS_P1;PMS_P2;Temp;Humidity;BMP_temperature;BMP_pressure;BME280_temperature;BME280_humidity;BME280_pressure;Samples;Min_cycle;Max_cycle;Signal;HPM_P1;HPM_P2
2021/03/10 00:00:56;;;;;;;87.15;37.65;;;;;;;-143.98;100.00;68091.63;5088754;28;20048;-82
2021/03/10 00:03:32;;;;;;;84.05;36.67;;;;;;;-143.98;100.00;68091.63;5070759;28;20048;-82
2021/03/10 00:05:58;;;;;;;91.07;37.00;;;;;;;-143.98;100.00;68091.63;5087782;28;20443;-82
2021/03/10 00:08:27;;;;;;;91.35;39.95;;;;;;;-143.98;100.00;68091.63;5064942;28;20048;-82
2021/03/10 00:10:53;;;;;;;85.25;37.50;;;;;;;-143.98;100.00;68091.63;5088440;28;20095;-81
2021/03/10 00:13:20;;;;;;;85.65;37.53;;;;;;;-143.98;100.00;68091.63;5093300;28;20070;-82
2021/03/10 00:15:49;;;;;;;91.10;38.70;;;;;;;-143.98;100.00;68091.63;5066031;28;20072;-84
2021/03/10 00:18:16;;;;;;;88.75;38.20;;;;;;;-143.98;100.00;68091.63;5056357;28;20087;-83
2021/03/10 00:20:42;;;;;;;86.75;38.08;;;;;;;-143.98;100.00;68091.63;5062728;28;20061;-83
2021/03/10 00:23:08;;;;;;;80.57;37.20;;;;;;;-143.98;100.00;68091.63;5063217;28;20048;-83
2021/03/10 00:25:38;;;;;;;93.40;38.40;;;;;;;-143.98;100.00;68091.63;5079800;28;20053;-83
2021/03/10 00:28:14;;;;;;;86.53;37.72;;;;;;;-143.98;100.00;68091.63;5080901;28;20062;-83
2021/03/10 00:30:40;;;;;;;97.93;40.38;;;;;;;-143.98;100.00;68091.63;5063133;28;20111;-83
2021/03/10 00:33:06;;;;;;;95.13;38.95;;;;;;;-143.98;100.00;68091.63;5063292;28;20049;-83
2021/03/10 00:35:32;;;;;;;89.75;37.40;;;;;;;-143.98;100.00;68091.63;5064390;28;20074;-83
2021/03/10 00:38:08;;;;;;;101.10;39.97;;;;;;;-143.98;100.00;68091.63;5087287;28;20112;-83
2021/03/10 00:40:38;;;;;;;93.20;39.15;;;;;;;-143.98;100.00;68091.63;5074104;28;20045;-83
2021/03/10 00:43:08;;;;;;;88.30;39.22;;;;;;;-143.98;100.00;68091.63;5074001;28;20184;-83
2021/03/10 00:45:34;;;;;;;93.03;39.33;;;;;;;-143.98;100.00;68091.63;5073085;28;20112;-83
2021/03/10 00:48:08;;;;;;;98.63;39.80;;;;;;;-143.98;100.00;68091.63;5073017;28;20143;-83
2021/03/10 00:50:44;;;;;;;95.28;41.85;;;;;;;-143.98;100.00;68091.63;5088588;28;20044;-83
2021/03/10 00:53:13;;;;;;;100.85;39.33;;;;;;;-143.98;100.00;68091.63;5072482;28;20032;-83
2021/03/10 00:55:39;;;;;;;95.45;37.90;;;;;;;-143.98;100.00;68091.63;5096811;28;20036;-82
2021/03/10 00:58:06;;;;;;;94.07;37.88;;;;;;;-143.98;100.00;68091.63;5097369;28;20050;-83
2021/03/10 01:00:32;;;;;;;89.30;38.88;;;;;;;-143.98;100.00;68091.63;5072884;28;20056;-83
2021/03/10 01:02:58;;;;;;;88.30;39.50;;;;;;;-143.98;100.00;68091.63;5088610;28;20054;-83
2021/03/10 01:05:45;;;;;;;92.03;39.28;;;;;;;-143.98;100.00;68091.63;5089145;28;20060;-83
2021/03/10 01:08:11;;;;;;;92.55;40.63;;;;;;;-143.98;100.00;68091.63;5110142;28;20091;-83
2021/03/10 01:10:41;;;;;;;92.78;39.83;;;;;;;-143.98;100.00;68091.63;5097217;28;20043;-82
2021/03/10 01:13:11;;;;;;;90.35;40.75;;;;;;;-143.98;100.00;68091.63;5094306;28;20076;-82
2021/03/10 01:15:38;;;;;;;100.97;40.17;;;;;;;-143.98;100.00;68091.63;5105921;28;20064;-82
2021/03/10 01:18:04;;;;;;;88.72;38.85;;;;;;;-143.98;100.00;68091.63;5088734;28;20059;-82
2021/03/10 01:20:31;;;;;;;84.35;37.75;;;;;;;-143.98;100.00;68091.63;5087819;28;20052;-82
2021/03/10 01:23:03;;;;;;;102.85;40.47;;;;;;;-143.98;100.00;68091.63;5090626;28;20056;-82
2021/03/10 01:25:32;;;;;;;83.00;36.05;;;;;;;-143.98;100.00;68091.63;5088882;28;20048;-82
2021/03/10 01:28:01;;;;;;;91.57;38.17;;;;;;;-143.98;100.00;68091.63;5088080;28;20336;-82
2021/03/10 01:30:27;;;;;;;86.85;37.67;;;;;;;-143.98;100.00;68091.63;5104221;28;20108;-82
2021/03/10 01:32:56;;;;;;;95.85;40.45;;;;;;;-143.98;100.00;68091.63;5086661;28;20067;-82
2021/03/10 01:35:24;;;;;;;94.00;39.63;;;;;;;-143.98;100.00;68091.63;5103354;28;20047;-82
2021/03/10 01:37:50;;;;;;;83.57;37.20;;;;;;;-143.98;100.00;68091.63;5081321;28;20044;-82
2021/03/10 01:40:18;;;;;;;89.88;38.70;;;;;;;-143.98;100.00;68091.63;5068030;28;20048;-82
2021/03/10 01:42:45;;;;;;;85.90;38.03;;;;;;;-143.98;100.00;68091.63;5083553;28;20049;-82
2021/03/10 01:45:13;;;;;;;89.32;37.85;;;;;;;-143.98;100.00;68091.63;5068297;28;20523;-82
2021/03/10 01:47:45;;;;;;;78.95;37.75;;;;;;;-143.98;100.00;68091.63;5087443;28;20102;-82
2021/03/10 01:50:16;;;;;;;89.70;38.53;;;;;;;-143.98;100.00;68091.63;5070699;28;20049;-82
2021/03/10 01:52:42;;;;;;;85.55;38.90;;;;;;;-143.98;100.00;68091.63;5067557;28;20052;-83
2021/03/10 01:55:12;;;;;;;82.70;37.03;;;;;;;-143.98;100.00;68091.63;5068419;28;20106;-83
2021/03/10 01:57:41;;;;;;;92.35;38.47;;;;;;;-143.98;100.00;68091.63;5070399;28;20068;-82
2021/03/10 02:00:10;;;;;;;82.90;36.63;;;;;;;-143.98;100.00;68091.63;5052440;28;20052;-82
2021/03/10 02:02:36;;;;;;;84.68;37.03;;;;;;;-143.98;100.00;68091.63;5067208;28;20064;-83
2021/03/10 02:05:04;;;;;;;89.97;38.42;;;;;;;-143.98;100.00;68091.63;5080674;28;20048;-83
2021/03/10 02:08:00;;;;;;;101.60;41.97;;;;;;;-143.98;100.00;68091.63;5067355;28;20057;-83
2021/03/10 02:11:10;;;;;;;85.65;36.75;;;;;;;-143.98;100.00;68091.63;5058071;28;20051;-83
2021/03/10 02:13:50;;;;;;;77.75;32.85;;;;;;;-143.98;100.00;68091.63;5052248;28;20083;-83
2021/03/10 02:16:29;;;;;;;88.75;37.78;;;;;;;-143.98;100.00;68091.63;5077400;28;20305;-83
2021/03/10 02:19:12;;;;;;;81.28;36.05;;;;;;;-143.98;100.00;68091.63;5063889;28;20109;-83
2021/03/10 02:21:58;;;;;;;83.55;36.10;;;;;;;-143.98;100.00;68091.63;5084325;28;20057;-82
2021/03/10 02:24:34;;;;;;;82.25;37.30;;;;;;;-143.98;100.00;68091.63;5067699;28;20377;-82
2021/03/10 02:27:32;;;;;;;85.93;37.15;;;;;;;-143.98;100.00;68091.63;5068079;28;20045;-82
2021/03/10 02:30:07;;;;;;;84.72;36.33;;;;;;;-143.98;100.00;68091.63;5086996;28;20381;-82
2021/03/10 02:32:37;;;;;;;84.90;36.83;;;;;;;-143.98;100.00;68091.63;5078604;28;20067;-82
2021/03/10 02:35:16;;;;;;;88.80;37.45;;;;;;;-143.98;100.00;68091.63;5072490;28;20289;-82
2021/03/10 02:37:46;;;;;;;83.72;37.13;;;;;;;-143.98;100.00;68091.63;5105668;28;20089;-82
2021/03/10 02:40:14;;;;;;;83.85;35.05;;;;;;;-143.98;100.00;68091.63;5089530;28;20047;-82
2021/03/10 02:42:40;;;;;;;92.63;39.42;;;;;;;-143.98;100.00;68091.63;5089008;28;20424;-82
2021/03/10 02:45:08;;;;;;;92.00;39.53;;;;;;;-143.98;100.00;68091.63;5087720;28;20063;-82
2021/03/10 02:47:38;;;;;;;98.50;40.30;;;;;;;-143.98;100.00;68091.63;5104976;28;20060;-82
2021/03/10 02:50:07;;;;;;;90.05;38.38;;;;;;;-143.98;100.00;68091.63;5105192;28;20098;-82
2021/03/10 02:52:36;;;;;;;97.60;40.08;;;;;;;-143.98;100.00;68091.63;5087012;28;20082;-82
2021/03/10 02:55:04;;;;;;;102.20;40.63;;;;;;;-143.98;100.00;68091.63;5102903;28;20052;-82
2021/03/10 02:57:34;;;;;;;93.38;37.83;;;;;;;-143.98;100.00;68091.63;5085981;28;20047;-84
2021/03/10 03:00:14;;;;;;;97.05;39.03;;;;;;;-143.98;100.00;68091.63;5085794;28;20052;-84
2021/03/10 03:02:40;;;;;;;93.88;39.63;;;;;;;-143.98;100.00;68091.63;5072323;28;20048;-84
2021/03/10 03:05:07;;;;;;;97.45;39.05;;;;;;;-143.98;100.00;68091.63;5095140;28;20047;-83
2021/03/10 03:07:36;;;;;;;94.32;39.97;;;;;;;-143.98;100.00;68091.63;5098170;28;20062;-84
2021/03/10 03:10:05;;;;;;;91.30;38.53;;;;;;;-143.98;100.00;68091.63;5091355;28;20044;-83
2021/03/10 03:12:35;;;;;;;93.00;38.55;;;;;;;-143.98;100.00;68091.63;5122685;28;20126;-83
2021/03/10 03:15:03;;;;;;;96.07;39.80;;;;;;;-143.98;100.00;68091.63;5088251;28;20052;-83
2021/03/10 03:17:33;;;;;;;97.97;41.47;;;;;;;-143.98;100.00;68091.63;5088959;28;20281;-84
2021/03/10 03:20:04;;;;;;;96.80;38.92;;;;;;;-143.98;100.00;68091.63;5072833;28;20427;-83
2021/03/10 03:22:31;;;;;;;96.95;39.20;;;;;;;-143.98;100.00;68091.63;5070013;28;20065;-84
2021/03/10 03:24:58;;;;;;;107.22;42.05;;;;;;;-143.98;100.00;68091.63;5086974;28;20415;-83
2021/03/10 03:27:25;;;;;;;99.03;38.55;;;;;;;-143.98;100.00;68091.63;5104128;28;20044;-83
2021/03/10 03:29:59;;;;;;;90.20;38.00;;;;;;;-143.98;100.00;68091.63;5051888;28;20056;-84
2021/03/10 03:32:27;;;;;;;105.63;38.88;;;;;;;-143.98;100.00;68091.63;5067800;28;20144;-83
2021/03/10 03:34:54;;;;;;;102.00;38.15;;;;;;;-143.98;100.00;68091.63;5068697;28;20134;-84
2021/03/10 03:37:40;;;;;;;94.55;37.55;;;;;;;-143.98;100.00;68091.63;5054767;28;20064;-83
2021/03/10 03:40:10;;;;;;;89.75;38.20;;;;;;;-143.98;100.00;68091.63;5071679;28;20260;-83
2021/03/10 03:42:40;;;;;;;92.22;38.33;;;;;;;-143.98;100.00;68091.63;5073827;28;20067;-83
2021/03/10 03:45:07;;;;;;;82.85;36.38;;;;;;;-143.98;100.00;68091.63;5057404;28;20049;-83
2021/03/10 03:47:35;;;;;;;80.05;35.83;;;;;;;-143.98;100.00;68091.63;5073976;28;20249;-83
2021/03/10 03:50:03;;;;;;;80.60;36.35;;;;;;;-143.98;100.00;68091.63;5053986;28;20053;-83
2021/03/10 03:52:29;;;;;;;80.03;34.90;;;;;;;-143.98;100.00;68091.63;5064855;28;20337;-83
2021/03/10 03:55:01;;;;;;;86.30;36.92;;;;;;;-143.98;100.00;68091.63;5083704;28;20049;-83
2021/03/10 03:57:28;;;;;;;93.50;37.15;;;;;;;-143.98;100.00;68091.63;5083860;28;20431;-83
2021/03/10 03:59:54;;;;;;;86.53;36.15;;;;;;;-143.98;100.00;68091.63;5117125;28;20064;-83
2021/03/10 04:02:20;;;;;;;91.82;38.63;;;;;;;-143.98;100.00;68091.63;5099264;28;20062;-83
2021/03/10 04:04:48;;;;;;;97.53;39.00;;;;;;;-143.98;100.00;68091.63;5083942;28;20052;-83
2021/03/10 04:07:17;;;;;;;87.97;39.03;;;;;;;-143.98;100.00;68091.63;5082724;28;20328;-83
2021/03/10 04:09:43;;;;;;;91.40;39.50;;;;;;;-143.98;100.00;68091.63;5083378;28;20048;-83
2021/03/10 04:12:10;;;;;;;101.05;38.25;;;;;;;-143.98;100.00;68091.63;5099835;28;20079;-84
2021/03/10 04:14:40;;;;;;;89.85;39.67;;;;;;;-143.98;100.00;68091.63;5084027;28;20115;-83
2021/03/10 04:17:06;;;;;;;86.45;36.22;;;;;;;-143.98;100.00;68091.63;5085171;28;20348;-83
2021/03/10 04:19:36;;;;;;;89.35;38.63;;;;;;;-143.98;100.00;68091.63;5083036;28;20083;-83
2021/03/10 04:22:10;;;;;;;89.43;36.25;;;;;;;-143.98;100.00;68091.63;5099680;28;20120;-83
2021/03/10 04:24:38;;;;;;;90.97;37.92;;;;;;;-143.98;100.00;68091.63;5083376;28;20066;-83
2021/03/10 04:27:07;;;;;;;92.00;38.97;;;;;;;-143.98;100.00;68091.63;5083666;28;20053;-83
2021/03/10 04:29:34;;;;;;;91.47;38.80;;;;;;;-143.98;100.00;68091.63;5091781;28;20033;-82
2021/03/10 04:32:00;;;;;;;91.40;39.45;;;;;;;-143.98;100.00;68091.63;5094140;28;20048;-83
2021/03/10 04:34:29;;;;;;;90.35;37.88;;;;;;;-143.98;100.00;68091.63;5091685;28;20447;-83
2021/03/10 04:36:55;;;;;;;99.45;39.70;;;;;;;-143.98;100.00;68091.63;5084776;28;20048;-82
2021/03/10 04:39:21;;;;;;;105.78;39.05;;;;;;;-143.98;100.00;68091.63;5084385;28;20056;-84
2021/03/10 04:41:51;;;;;;;97.07;40.53;;;;;;;-143.98;100.00;68091.63;5086811;28;20040;-84
2021/03/10 04:44:17;;;;;;;106.38;38.85;;;;;;;-143.98;100.00;68091.63;5093840;28;20104;-82
2021/03/10 04:46:43;;;;;;;103.55;40.58;;;;;;;-143.98;100.00;68091.63;5071124;28;20074;-83
2021/03/10 04:49:10;;;;;;;105.30;40.08;;;;;;;-143.98;100.00;68091.63;5084298;28;20055;-82
2021/03/10 04:51:40;;;;;;;108.18;40.90;;;;;;;-143.98;100.00;68091.63;5073292;28;20106;-83
2021/03/10 04:54:07;;;;;;;90.00;38.08;;;;;;;-143.98;100.00;68091.63;5063739;28;20045;-83
2021/03/10 04:56:33;;;;;;;99.85;38.72;;;;;;;-143.98;100.00;68091.63;5079574;28;20052;-82
2021/03/10 04:58:59;;;;;;;98.38;39.58;;;;;;;-143.98;100.00;68091.63;5090877;28;20143;-83
2021/03/10 05:01:28;;;;;;;99.78;37.65;;;;;;;-143.98;100.00;68091.63;5057355;28;20103;-83
2021/03/10 05:03:54;;;;;;;90.72;37.55;;;;;;;-143.98;100.00;68091.63;5059511;28;20083;-83
2021/03/10 05:06:21;;;;;;;100.72;40.42;;;;;;;-143.98;100.00;68091.63;5064934;28;20104;-83
2021/03/10 05:08:51;;;;;;;86.65;39.38;;;;;;;-143.98;100.00;68091.63;5079746;28;20044;-83
2021/03/10 05:11:20;;;;;;;91.25;37.08;;;;;;;-143.98;100.00;68091.63;5076861;28;20063;-82
2021/03/10 05:13:47;;;;;;;96.82;39.17;;;;;;;-143.98;100.00;68091.63;5086587;28;20351;-82
2021/03/10 05:16:14;;;;;;;89.32;36.58;;;;;;;-143.98;100.00;68091.63;5067778;28;20062;-83
2021/03/10 05:18:44;;;;;;;89.60;37.70;;;;;;;-143.98;100.00;68091.63;5084706;28;20048;-83
2021/03/10 05:21:11;;;;;;;85.15;35.88;;;;;;;-143.98;100.00;68091.63;5065972;28;20048;-82
2021/03/10 05:23:41;;;;;;;90.55;38.58;;;;;;;-143.98;100.00;68091.63;5101608;28;20060;-83
2021/03/10 05:26:09;;;;;;;96.72;38.65;;;;;;;-143.98;100.00;68091.63;5085365;28;20064;-83
2021/03/10 05:28:37;;;;;;;90.57;35.55;;;;;;;-143.98;100.00;68091.63;5083368;28;20408;-83
2021/03/10 05:31:05;;;;;;;92.70;37.00;;;;;;;-143.98;100.00;68091.63;5101049;28;20040;-83
2021/03/10 05:33:35;;;;;;;86.53;37.20;;;;;;;-143.98;100.00;68091.63;5085451;28;20040;-83
2021/03/10 05:36:08;;;;;;;94.38;39.08;;;;;;;-143.98;100.00;68091.63;5081081;28;20059;-84
2021/03/10 05:38:36;;;;;;;94.72;38.03;;;;;;;-143.98;100.00;68091.63;5063982;28;20071;-83
2021/03/10 05:41:12;;;;;;;88.75;37.53;;;;;;;-143.98;100.00;68091.63;5071659;28;20088;-82
2021/03/10 05:43:38;;;;;;;97.20;37.97;;;;;;;-143.98;100.00;68091.63;5082800;28;20120;-82
2021/03/10 05:46:04;;;;;;;97.60;39.17;;;;;;;-143.98;100.00;68091.63;5089333;28;20148;-82
2021/03/10 05:48:38;;;;;;;98.85;38.50;;;;;;;-143.98;100.00;68091.63;5085928;28;20060;-80
2021/03/10 05:51:10;;;;;;;101.40;38.42;;;;;;;-143.98;100.00;68091.63;5057102;28;20053;-80
2021/03/10 05:53:38;;;;;;;99.05;37.95;;;;;;;-143.98;100.00;68091.63;5039962;28;20049;-80
2021/03/10 05:56:05;;;;;;;106.95;40.67;;;;;;;-143.98;100.00;68091.63;5037717;28;20112;-80
2021/03/10 05:58:37;;;;;;;102.72;40.78;;;;;;;-143.98;100.00;68091.63;5058004;28;20052;-80
2021/03/10 06:01:03;;;;;;;107.72;41.13;;;;;;;-143.98;100.00;68091.63;5088345;28;20121;-80
2021/03/10 06:03:40;;;;;;;95.80;39.20;;;;;;;-143.98;100.00;68091.63;5074855;28;20049;-82
2021/03/10 06:06:07;;;;;;;89.88;39.90;;;;;;;-143.98;100.00;68091.63;5073342;28;20055;-80
2021/03/10 06:08:34;;;;;;;97.07;39.35;;;;;;;-143.98;100.00;68091.63;5055884;28;20068;-81
2021/03/10 06:11:03;;;;;;;99.57;39.55;;;;;;;-143.98;100.00;68091.63;5106288;28;20291;-81
2021/03/10 06:13:31;;;;;;;96.80;37.55;;;;;;;-143.98;100.00;68091.63;5075276;28;20146;-82
2021/03/10 06:15:59;;;;;;;106.95;41.25;;;;;;;-143.98;100.00;68091.63;5073510;28;20067;-81
2021/03/10 06:18:39;;;;;;;104.15;39.75;;;;;;;-143.98;100.00;68091.63;5059342;28;20049;-81
2021/03/10 06:21:09;;;;;;;102.88;41.03;;;;;;;-143.98;100.00;68091.63;5099649;28;20099;-82
2021/03/10 06:24:04;;;;;;;106.55;40.95;;;;;;;-143.98;100.00;68091.63;5093630;28;20055;-81
2021/03/10 06:26:34;;;;;;;113.32;39.90;;;;;;;-143.98;100.00;68091.63;5056718;28;20055;-81
2021/03/10 06:29:16;;;;;;;109.90;40.47;;;;;;;-143.98;100.00;68091.63;5074675;28;20044;-81
2021/03/10 06:31:42;;;;;;;106.10;41.25;;;;;;;-143.98;100.00;68091.63;5074207;28;20060;-80
2021/03/10 06:34:13;;;;;;;104.03;41.55;;;;;;;-143.98;100.00;68091.63;5091350;28;20100;-80
2021/03/10 06:36:59;;;;;;;97.57;38.78;;;;;;;-143.98;100.00;68091.63;5092648;28;20052;-81
2021/03/10 06:39:32;;;;;;;103.40;40.33;;;;;;;-143.98;100.00;68091.63;5076273;28;20133;-79
2021/03/10 06:41:59;;;;;;;100.97;40.90;;;;;;;-143.98;100.00;68091.63;5102119;28;20077;-81
2021/03/10 06:44:27;;;;;;;95.20;38.83;;;;;;;-143.98;100.00;68091.63;5086200;28;20054;-80
2021/03/10 06:47:02;;;;;;;100.78;42.15;;;;;;;-143.98;100.00;68091.63;5053309;28;20052;-80
2021/03/10 06:49:49;;;;;;;109.47;41.33;;;;;;;-143.98;100.00;68091.63;5083549;28;20118;-80
2021/03/10 06:52:15;;;;;;;92.68;39.90;;;;;;;-143.98;100.00;68091.63;5073898;28;20105;-81
2021/03/10 06:54:59;;;;;;;101.40;40.83;;;;;;;-143.98;100.00;68091.63;5090319;28;20226;-81
2021/03/10 06:57:42;;;;;;;103.55;42.58;;;;;;;-143.98;100.00;68091.63;5093526;28;20048;-82
2021/03/10 07:00:42;;;;;;;105.45;41.40;;;;;;;-143.98;100.00;68091.63;5109146;28;20207;-81
2021/03/10 07:03:14;;;;;;;107.53;42.72;;;;;;;-143.98;100.00;68091.63;5055179;28;20048;-81
2021/03/10 07:05:50;;;;;;;107.15;41.85;;;;;;;-143.98;100.00;68091.63;5070029;28;20393;-83
2021/03/10 07:08:25;;;;;;;99.70;40.35;;;;;;;-143.98;100.00;68091.63;5059519;28;20142;-81
2021/03/10 07:10:53;;;;;;;107.57;42.85;;;;;;;-143.98;100.00;68091.63;5055003;28;20056;-81
2021/03/10 07:13:20;;;;;;;101.10;41.97;;;;;;;-143.98;100.00;68091.63;5037488;28;20399;-81
2021/03/10 07:15:57;;;;;;;103.05;43.53;;;;;;;-143.98;100.00;68091.63;5052613;28;20049;-81
2021/03/10 07:18:30;;;;;;;101.68;44.50;;;;;;;-143.98;100.00;68091.63;5054348;28;20278;-80
2021/03/10 07:20:58;;;;;;;107.10;42.97;;;;;;;-143.98;100.00;68091.63;5055464;28;20322;-80
2021/03/10 07:23:27;;;;;;;104.32;42.10;;;;;;;-143.98;100.00;68091.63;5054716;28;20082;-81
2021/03/10 07:26:01;;;;;;;106.88;41.13;;;;;;;-143.98;100.00;68091.63;5071543;28;20634;-81
2021/03/10 07:28:33;;;;;;;97.07;39.92;;;;;;;-143.98;100.00;68091.63;5060015;28;20143;-80
2021/03/10 07:31:02;;;;;;;101.22;40.25;;;;;;;-143.98;100.00;68091.63;5055860;28;20067;-81
2021/03/10 07:33:30;;;;;;;93.55;40.17;;;;;;;-143.98;100.00;68091.63;5056306;28;20229;-81
2021/03/10 07:35:59;;;;;;;95.13;40.90;;;;;;;-143.98;100.00;68091.63;5072211;28;20590;-80
2021/03/10 07:38:37;;;;;;;89.65;39.60;;;;;;;-143.98;100.00;68091.63;5073380;28;20132;-81
2021/03/10 07:41:08;;;;;;;94.57;40.17;;;;;;;-143.98;100.00;68091.63;5090798;28;20105;-81
2021/03/10 07:43:50;;;;;;;90.25;39.05;;;;;;;-143.98;100.00;68091.63;5055354;28;20075;-81
2021/03/10 07:46:37;;;;;;;89.72;39.80;;;;;;;-143.98;100.00;68091.63;5054886;28;20454;-80
2021/03/10 07:49:20;;;;;;;88.60;39.38;;;;;;;-143.98;100.00;68091.63;5069935;28;20041;-80
2021/03/10 07:51:47;;;;;;;89.88;38.35;;;;;;;-143.98;100.00;68091.63;5080612;28;20174;-80
2021/03/10 07:54:27;;;;;;;91.22;39.78;;;;;;;-143.98;100.00;68091.63;5100719;28;20051;-80
2021/03/10 07:57:19;;;;;;;89.40;39.70;;;;;;;-143.98;100.00;68091.63;5068197;28;20047;-80
2021/03/10 07:59:58;;;;;;;89.68;37.33;;;;;;;-143.98;100.00;68091.63;5069981;28;20105;-81
2021/03/10 08:02:28;;;;;;;93.13;38.85;;;;;;;-143.98;100.00;68091.63;5099763;28;20052;-80
2021/03/10 08:05:00;;;;;;;80.78;36.08;;;;;;;-143.98;100.00;68091.63;5136819;27;20055;-81
2021/03/10 08:07:36;;;;;;;85.55;38.35;;;;;;;-143.98;100.00;68091.63;5101829;28;20436;-81
2021/03/10 08:10:03;;;;;;;;;;;;;;;-143.98;100.00;68091.63;5069009;28;20040;-81
2021/03/10 08:12:41;;;;;;;84.45;35.97;;;;;;;-143.98;100.00;68091.63;5069267;28;19931;-81
2021/03/10 08:15:21;;;;;;;88.00;38.38;;;;;;;-143.98;100.00;68091.63;5114214;28;20054;-80
2021/03/10 08:18:01;;;;;;;77.70;34.25;;;;;;;-143.98;100.00;68091.63;5087756;28;20066;-80
2021/03/10 08:20:35;;;;;;;77.43;36.35;;;;;;;-143.98;100.00;68091.63;5074763;28;20054;-82
2021/03/10 08:23:07;;;;;;;;;;;;;;;-143.98;100.00;68091.63;5049225;28;20060;-81
2021/03/10 08:25:36;;;;;;;77.18;36.70;;;;;;;-143.98;100.00;68091.63;5047410;28;19931;-80
2021/03/10 08:28:13;;;;;;;77.60;36.28;;;;;;;-143.98;100.00;68091.63;5030317;28;20263;-80
2021/03/10 08:30:42;;;;;;;73.90;32.97;;;;;;;-143.98;100.00;68091.63;5080740;28;20056;-81
2021/03/10 08:33:12;;;;;;;64.95;32.38;;;;;;;-143.98;100.00;68091.63;5046228;28;20056;-81
2021/03/10 08:35:49;;;;;;;67.03;35.20;;;;;;;-143.98;100.00;68091.63;5047390;28;20053;-80
2021/03/10 08:38:17;;;;;;;58.88;32.00;;;;;;;-143.98;100.00;68091.63;5044516;28;20056;-81
2021/03/10 08:40:46;;;;;;;66.70;33.35;;;;;;;-143.98;100.00;68091.63;5045381;28;20048;-80
2021/03/10 08:43:18;;;;;;;73.32;33.80;;;;;;;-143.98;100.00;68091.63;5043233;28;20255;-80
2021/03/10 08:46:14;;;;;;;70.80;34.33;;;;;;;-143.98;100.00;68091.63;5056667;28;20052;-80
2021/03/10 08:48:40;;;;;;;66.78;31.88;;;;;;;-143.98;100.00;68091.63;5062814;28;20144;-80
2021/03/10 08:51:09;;;;;;;66.95;34.28;;;;;;;-143.98;100.00;68091.63;5029293;28;20054;-80
2021/03/10 08:53:36;;;;;;;75.70;35.50;;;;;;;-143.98;100.00;68091.63;5057196;28;20053;-82
2021/03/10 08:56:07;;;;;;;71.82;34.63;;;;;;;-143.98;100.00;68091.63;5042801;28;20413;-81
2021/03/10 08:58:34;;;;;;;68.20;33.08;;;;;;;-143.98;100.00;68091.63;5073721;28;20263;-81
2021/03/10 09:01:21;;;;;;;58.60;31.27;;;;;;;-143.98;100.00;68091.63;5031385;28;20088;-81
2021/03/10 09:03:48;;;;;;;63.63;31.48;;;;;;;-143.98;100.00;68091.63;5017750;28;20103;-82
2021/03/10 09:06:17;;;;;;;63.22;32.75;;;;;;;-143.98;100.00;68091.63;5033517;28;20414;-81
2021/03/10 09:08:43;;;;;;;61.28;30.77;;;;;;;-143.98;100.00;68091.63;5050034;28;20357;-80
2021/03/10 09:11:19;;;;;;;65.63;32.35;;;;;;;-143.98;100.00;68091.63;5035797;28;20068;-81
2021/03/10 09:13:46;;;;;;;60.15;31.15;;;;;;;-143.98;100.00;68091.63;5034857;28;20156;-81
2021/03/10 09:16:15;;;;;;;57.67;28.77;;;;;;;-143.98;100.00;68091.63;5054182;28;20208;-81
2021/03/10 09:19:04;;;;;;;63.78;29.73;;;;;;;-143.98;100.00;68091.63;5049835;28;20044;-81
2021/03/10 09:22:04;;;;;;;63.90;30.52;;;;;;;-143.98;100.00;68091.63;5061076;28;20152;-80
2021/03/10 09:24:32;;;;;;;64.53;30.38;;;;;;;-143.98;100.00;68091.63;5013638;28;20433;-81
2021/03/10 09:27:01;;;;;;;61.25;31.80;;;;;;;-143.98;100.00;68091.63;5015757;28;20403;-80
2021/03/10 09:29:30;;;;;;;62.80;29.73;;;;;;;-143.98;100.00;68091.63;5047214;28;20175;-80
2021/03/10 09:31:59;;;;;;;58.92;30.33;;;;;;;-143.98;100.00;68091.63;5063071;28;20046;-79
2021/03/10 09:34:26;;;;;;;64.68;30.33;;;;;;;-143.98;100.00;68091.63;5062564;28;20200;-80
2021/03/10 09:36:54;;;;;;;59.55;30.60;;;;;;;-143.98;100.00;68091.63;5014393;28;20119;-80
2021/03/10 09:39:25;;;;;;;67.15;30.25;;;;;;;-143.98;100.00;68091.63;5013875;28;20305;-80
2021/03/10 09:41:55;;;;;;;70.95;32.28;;;;;;;-143.98;100.00;68091.63;5062996;28;20049;-80
2021/03/10 09:44:21;;;;;;;69.82;30.05;;;;;;;-143.98;100.00;68091.63;5063091;28;20045;-80
2021/03/10 09:46:47;;;;;;;75.63;32.55;;;;;;;-143.98;100.00;68091.63;5067979;28;20216;-81
2021/03/10 09:49:17;;;;;;;80.80;34.50;;;;;;;-143.98;100.00;68091.63;5038905;28;20345;-79
2021/03/10 09:51:55;;;;;;;78.65;33.42;;;;;;;-143.98;100.00;68091.63;5034385;28;20053;-79
2021/03/10 09:54:21;;;;;;;84.00;32.35;;;;;;;-143.98;100.00;68091.63;5031205;28;20266;-79
2021/03/10 09:56:50;;;;;;;80.85;32.25;;;;;;;-143.98;100.00;68091.63;5061202;28;20053;-80
2021/03/10 09:59:20;;;;;;;76.45;31.98;;;;;;;-143.98;100.00;68091.63;5029386;28;20076;-80
2021/03/10 10:01:50;;;;;;;87.32;33.10;;;;;;;-143.98;100.00;68091.63;5030279;28;20049;-81
2021/03/10 10:04:19;;;;;;;82.85;32.60;;;;;;;-143.98;100.00;68091.63;5030190;28;20054;-81
2021/03/10 10:06:52;;;;;;;82.32;33.05;;;;;;;-143.98;100.00;68091.63;5028474;28;20301;-80
2021/03/10 10:09:21;;;;;;;83.87;31.20;;;;;;;-143.98;100.00;68091.63;5030339;28;20096;-80
2021/03/10 10:11:47;;;;;;;86.70;32.17;;;;;;;-143.98;100.00;68091.63;5047054;28;20223;-80
2021/03/10 10:14:13;;;;;;;76.22;31.38;;;;;;;-143.98;100.00;68091.63;5042406;28;20193;-80
2021/03/10 10:16:49;;;;;;;78.25;32.30;;;;;;;-143.98;100.00;68091.63;5031215;28;20087;-82
2021/03/10 10:19:20;;;;;;;74.47;29.45;;;;;;;-143.98;100.00;68091.63;5048155;28;20184;-80
2021/03/10 10:21:51;;;;;;;57.08;27.25;;;;;;;-143.98;100.00;68091.63;5040402;28;20140;-80
2021/03/10 10:24:19;;;;;;;63.20;28.45;;;;;;;-143.98;100.00;68091.63;5070584;28;20055;-80
2021/03/10 10:26:49;;;;;;;66.75;28.33;;;;;;;-143.98;100.00;68091.63;5052854;28;20062;-80
2021/03/10 10:29:17;;;;;;;51.40;25.85;;;;;;;-143.98;100.00;68091.63;5053523;28;20107;-80
2021/03/10 10:31:46;;;;;;;49.53;24.20;;;;;;;-143.98;100.00;68091.63;5068977;28;20450;-81
2021/03/10 10:34:16;;;;;;;57.42;27.02;;;;;;;-143.98;100.00;68091.63;5069225;28;20155;-80
2021/03/10 10:36:42;;;;;;;44.70;22.73;;;;;;;-143.98;100.00;68091.63;5066226;28;20110;-80
2021/03/10 10:39:19;;;;;;;45.67;23.27;;;;;;;-143.98;100.00;68091.63;5053350;28;20169;-80
2021/03/10 10:41:48;;;;;;;43.88;21.58;;;;;;;-143.98;100.00;68091.63;5070079;28;20053;-80
2021/03/10 10:44:15;;;;;;;45.22;22.33;;;;;;;-143.98;100.00;68091.63;5073892;28;20105;-79
2021/03/10 10:46:43;;;;;;;40.25;20.80;;;;;;;-143.98;100.00;68091.63;5061648;28;20049;-80
2021/03/10 10:49:22;;;;;;;40.60;20.40;;;;;;;-143.98;100.00;68091.63;5064466;28;20040;-79
2021/03/10 10:51:51;;;;;;;41.53;20.90;;;;;;;-143.98;100.00;68091.63;5064523;28;20076;-80
2021/03/10 10:54:18;;;;;;;45.85;22.58;;;;;;;-143.98;100.00;68091.63;5083057;28;20109;-80
2021/03/10 10:56:47;;;;;;;42.35;23.30;;;;;;;-143.98;100.00;68091.63;5074942;28;20079;-79
2021/03/10 10:59:16;;;;;;;38.60;21.05;;;;;;;-143.98;100.00;68091.63;5049464;28;20048;-80
2021/03/10 11:01:45;;;;;;;44.72;25.13;;;;;;;-143.98;100.00;68091.63;5048566;28;20462;-80
2021/03/10 11:04:16;;;;;;;41.75;21.33;;;;;;;-143.98;100.00;68091.63;5066394;28;20045;-80
2021/03/10 11:06:45;;;;;;;41.70;21.05;;;;;;;-143.98;100.00;68091.63;5051009;28;20056;-80
2021/03/10 11:09:12;;;;;;;36.50;20.83;;;;;;;-143.98;100.00;68091.63;5052969;28;20403;-81
2021/03/10 11:11:41;;;;;;;40.67;22.75;;;;;;;-143.98;100.00;68091.63;5053708;28;20045;-81